Time;durP1;ratioP1;P1;durP2;ratioP2;P2;SDS_P1;SDS_P2;PMS_P1;PMS_P2;Temp;Humidity;BMP_temperature;BMP_pressure;BME280_temperature;BME280_humidity;BME280_pressure;Samples;Min_cycle;Max_cycle;Signal;HPM_P1;HPM_P2
2023/11/14 00:00:36;;;;;;;11.52;1.42;;;12.20;99.90;;;;;;4085764;29;20278;-94
2023/11/14 00:02:46;;;;;;;14.30;1.73;;;12.20;99.90;;;;;;4101611;29;20284;-94
2023/11/14 00:04:46;;;;;;;11.43;1.38;;;12.30;99.90;;;;;;4084842;29;20238;-95
2023/11/14 00:06:47;;;;;;;11.82;1.92;;;12.30;99.90;;;;;;4101571;28;20187;-95
2023/11/14 00:08:49;;;;;;;14.23;2.33;;;12.20;99.90;;;;;;4086055;29;20239;-96
2023/11/14 00:10:51;;;;;;;7.53;1.27;;;12.10;99.90;;;;;;4100955;29;20233;-95
2023/11/14 00:12:52;;;;;;;10.95;1.48;;;12.10;99.90;;;;;;4086443;29;20236;-94
2023/11/14 00:15:02;;;;;;;11.57;2.33;;;12.00;99.90;;;;;;4085860;29;20191;-96
2023/11/14 00:17:03;;;;;;;14.25;1.67;;;12.00;99.90;;;;;;4086757;29;20179;-96
2023/11/14 00:19:06;;;;;;;8.43;1.95;;;12.00;99.90;;;;;;4086552;29;20226;-96
2023/11/14 00:21:07;;;;;;;8.43;1.42;;;12.00;99.90;;;;;;4088300;29;20538;-93
2023/11/14 00:23:08;;;;;;;8.55;1.35;;;12.10;99.90;;;;;;4102359;29;20185;-95
2023/11/14 00:25:09;;;;;;;13.27;1.45;;;12.10;99.90;;;;;;4086577;29;20282;-95
2023/11/14 00:27:10;;;;;;;11.73;2.00;;;12.00;99.90;;;;;;4086459;29;20191;-96
2023/11/14 00:29:11;;;;;;;9.63;1.30;;;12.00;99.90;;;;;;4085868;29;20234;-95
2023/11/14 00:31:11;;;;;;;19.13;1.83;;;12.10;99.90;;;;;;4086964;29;20202;-95
2023/11/14 00:33:12;;;;;;;8.80;1.85;;;12.10;99.90;;;;;;4086604;29;20183;-96
2023/11/14 00:35:14;;;;;;;15.23;1.88;;;12.20;99.90;;;;;;4085087;29;20259;-93
2023/11/14 00:37:22;;;;;;;10.25;1.67;;;12.20;99.90;;;;;;4100540;29;20678;-95
2023/11/14 00:39:33;;;;;;;6.15;1.48;;;12.10;99.90;;;;;;4101386;29;20233;-94
2023/11/14 00:41:52;;;;;;;;;;;;;;;;;;;;;
2023/11/14 00:43:56;;;;;;;16.17;2.05;;;12.10;99.90;;;;;;4116469;28;20181;-96
2023/11/14 00:45:57;;;;;;;9.85;1.73;;;12.20;99.90;;;;;;4100573;28;20183;-95
2023/11/14 00:48:00;;;;;;;12.05;1.05;;;12.20;99.90;;;;;;4100838;29;20823;-96
2023/11/14 00:50:09;;;;;;;7.05;1.95;;;12.20;99.90;;;;;;4084905;29;20225;-95
2023/11/14 00:52:12;;;;;;;9.20;1.35;;;12.30;99.90;;;;;;4084220;29;20183;-94
2023/11/14 00:54:16;;;;;;;15.18;1.05;;;12.30;99.90;;;;;;4100258;29;20187;-95
2023/11/14 00:56:17;;;;;;;4.53;0.88;;;12.40;99.90;;;;;;4101059;29;20183;-95
2023/11/14 00:58:20;;;;;;;16.77;2.70;;;12.30;99.90;;;;;;4085592;29;20655;-94
2023/11/14 01:00:21;;;;;;;2.20;0.93;;;12.20;99.90;;;;;;4086041;29;20663;-95
2023/11/14 01:02:23;;;;;;;8.35;1.45;;;12.10;99.90;;;;;;4117295;28;20174;-96
2023/11/14 01:04:28;;;;;;;8.35;1.60;;;12.20;99.90;;;;;;4101705;29;20187;-96
2023/11/14 01:06:29;;;;;;;9.77;1.10;;;12.20;99.90;;;;;;4084240;29;20207;-94
2023/11/14 01:08:33;;;;;;;6.15;1.15;;;12.10;99.90;;;;;;4100515;28;20206;-96
2023/11/14 01:10:37;;;;;;;9.23;2.35;;;12.10;99.90;;;;;;4084890;29;20223;-95
2023/11/14 01:12:38;;;;;;;4.07;0.80;;;12.20;99.90;;;;;;4085612;29;20195;-96
2023/11/14 01:15:00;;;;;;;16.75;2.78;;;12.40;99.90;;;;;;4085063;29;20278;-94
2023/11/14 01:17:03;;;;;;;5.07;1.23;;;12.30;99.90;;;;;;4084693;29;20551;-95
2023/11/14 01:19:04;;;;;;;12.07;1.63;;;12.30;99.90;;;;;;4102358;28;20202;-96
2023/11/14 01:21:08;;;;;;;4.20;0.90;;;12.40;99.90;;;;;;4105017;28;20277;-96
2023/11/14 01:23:09;;;;;;;12.30;1.48;;;12.40;99.90;;;;;;4088586;29;20193;-96
2023/11/14 01:25:11;;;;;;;7.97;2.42;;;12.50;99.90;;;;;;4120646;28;20697;-95
2023/11/14 01:27:12;;;;;;;6.35;1.73;;;12.50;99.90;;;;;;4088711;29;20194;-95
2023/11/14 01:29:15;;;;;;;12.10;1.90;;;12.50;99.90;;;;;;4104992;29;20354;-94
2023/11/14 01:31:22;;;;;;;7.65;1.92;;;12.50;99.90;;;;;;4104653;29;20182;-94
2023/11/14 01:33:23;;;;;;;11.68;1.00;;;12.50;99.90;;;;;;4105338;29;20261;-94
2023/11/14 01:35:30;;;;;;;13.85;2.33;;;12.50;99.90;;;;;;4108764;28;20639;-94
2023/11/14 01:37:32;;;;;;;9.95;1.77;;;12.50;99.90;;;;;;4096452;29;20203;-94
2023/11/14 01:39:36;;;;;;;13.10;1.50;;;12.50;99.90;;;;;;4114085;29;20268;-94
2023/11/14 01:41:37;;;;;;;10.88;2.33;;;12.40;99.90;;;;;;4107603;29;20186;-94
2023/11/14 01:43:50;;;;;;;9.63;1.48;;;12.30;99.90;;;;;;4093777;29;20191;-93
2023/11/14 01:45:54;;;;;;;8.27;1.48;;;12.40;99.90;;;;;;4105092;29;20273;-95
2023/11/14 01:47:56;;;;;;;7.38;1.20;;;12.40;99.90;;;;;;4087410;29;20211;-94
2023/11/14 01:50:00;;;;;;;13.20;2.22;;;12.40;99.90;;;;;;4087303;29;20247;-93
2023/11/14 01:52:14;;;;;;;14.48;1.13;;;12.40;99.90;;;;;;4103980;29;20244;-95
2023/11/14 01:54:16;;;;;;;5.53;1.52;;;12.40;99.90;;;;;;4088305;29;20312;-94
2023/11/14 01:56:35;;;;;;;8.43;1.42;;;12.40;99.90;;;;;;4088319;29;20260;-94
2023/11/14 01:58:39;;;;;;;13.18;1.15;;;12.40;99.90;;;;;;4103642;29;20199;-95
2023/11/14 02:00:48;;;;;;;8.18;1.65;;;12.40;99.90;;;;;;4086736;29;20714;-94
2023/11/14 02:03:08;;;;;;;5.10;1.08;;;12.40;99.90;;;;;;4086998;29;20627;-93
2023/11/14 02:05:15;;;;;;;4.30;1.20;;;12.20;99.90;;;;;;4087312;29;20187;-95
2023/11/14 02:07:32;;;;;;;13.35;1.77;;;12.20;99.90;;;;;;4086931;29;20236;-95
2023/11/14 02:09:45;;;;;;;16.10;1.88;;;12.30;99.90;;;;;;4086351;29;20244;-95
2023/11/14 02:11:51;;;;;;;11.60;1.83;;;12.20;99.90;;;;;;4086396;29;20597;-95
2023/11/14 02:13:55;;;;;;;2.05;0.85;;;12.10;99.90;;;;;;4102339;28;20206;-94
2023/11/14 02:16:10;;;;;;;9.35;1.23;;;12.00;99.90;;;;;;4102025;29;20191;-95
2023/11/14 02:18:42;;;;;;;4.97;1.45;;;12.00;99.90;;;;;;4089034;29;20199;-94
2023/11/14 02:20:51;;;;;;;16.60;2.53;;;11.90;99.90;;;;;;4102728;29;20275;-94
2023/11/14 02:23:16;;;;;;;4.75;0.70;;;12.00;99.90;;;;;;4086329;29;20647;-95
2023/11/14 02:25:22;;;;;;;10.50;1.42;;;12.00;99.90;;;;;;4102138;29;20187;-95
2023/11/14 02:30:42;;;;;;;;;;;;;;;;;;;;;
2023/11/14 02:33:16;;;;;;;5.38;1.02;;;11.90;99.90;;;;;;4102611;29;20182;-95
2023/11/14 02:35:29;;;;;;;4.35;1.13;;;12.10;99.90;;;;;;4086368;29;20736;-95
2023/11/14 02:37:42;;;;;;;5.65;0.95;;;12.00;99.90;;;;;;4086696;29;20235;-96
2023/11/14 02:40:33;;;;;;;13.13;1.83;;;12.10;99.90;;;;;;4101872;29;20571;-96
2023/11/14 02:42:52;;;;;;;4.93;1.60;;;12.10;99.90;;;;;;4086383;29;20195;-95
2023/11/14 02:45:23;;;;;;;15.25;2.15;;;12.00;99.90;;;;;;4086608;29;20184;-95
2023/11/14 02:47:29;;;;;;;5.60;0.98;;;12.00;99.90;;;;;;4086678;29;20204;-94
2023/11/14 02:50:08;;;;;;;14.90;2.35;;;12.00;99.90;;;;;;4103447;28;20221;-96
2023/11/14 02:52:34;;;;;;;7.60;1.90;;;12.00;99.90;;;;;;4086098;29;20275;-94
2023/11/14 02:54:40;;;;;;;14.18;1.15;;;11.90;99.90;;;;;;4086466;29;20191;-95
2023/11/14 03:01:00;;;;;;;;;;;;;;;;;;;;;
2023/11/14 03:03:16;;;;;;;6.35;1.98;;;11.80;99.90;;;;;;4099005;28;20186;-95
2023/11/14 03:05:22;;;;;;;9.02;2.10;;;11.80;99.90;;;;;;4085336;29;20201;-94
2023/11/14 03:07:33;;;;;;;;;;;;;;;;;;;;;
2023/11/14 03:09:37;;;;;;;10.55;1.55;;;11.80;99.90;;;;;;4101631;29;20572;-96
2023/11/14 03:12:08;;;;;;;;;;;;;;;;;;;;;
2023/11/14 03:14:48;;;;;;;5.47;1.10;;;11.80;99.90;;;;;;4115466;28;20193;-96
2023/11/14 03:16:58;;;;;;;8.15;1.25;;;11.80;99.90;;;;;;4101281;29;20183;-96
2023/11/14 03:19:44;;;;;;;20.30;0.93;;;11.70;99.90;;;;;;4085123;29;20211;-95
2023/11/14 03:22:14;;;;;;;;;;;;;;;;;;;;;
2023/11/14 03:27:10;;;;;;;7.72;1.38;;;11.60;99.90;;;;;;4033187;29;20225;-94
2023/11/14 03:29:16;;;;;;;9.73;1.25;;;11.70;99.90;;;;;;4073714;29;20246;-95
2023/11/14 03:31:29;;;;;;;7.95;1.15;;;11.70;99.90;;;;;;4075016;29;20244;-96
2023/11/14 03:33:56;;;;;;;9.13;1.42;;;11.60;99.90;;;;;;4102121;29;20278;-96
2023/11/14 03:36:36;;;;;;;4.63;1.60;;;11.70;99.90;;;;;;4087390;29;20190;-95
2023/11/14 03:38:58;;;;;;;11.10;1.20;;;11.70;99.90;;;;;;4090443;29;20212;-96
2023/11/14 03:41:07;;;;;;;8.30;1.38;;;11.80;99.90;;;;;;4088505;29;20191;-95
2023/11/14 03:43:24;;;;;;;;;;;;;;;;;;;;;
2023/11/14 03:45:34;;;;;;;13.73;1.25;;;11.80;99.90;;;;;;4102577;29;20301;-96
2023/11/14 03:47:47;;;;;;;21.58;1.70;;;11.90;99.90;;;;;;4102509;29;20552;-96
2023/11/14 03:49:50;;;;;;;8.05;1.02;;;11.80;99.90;;;;;;4103088;29;20313;-96
2023/11/14 03:51:53;;;;;;;8.65;1.25;;;11.70;99.90;;;;;;4087675;29;20180;-95
2023/11/14 03:53:59;;;;;;;6.80;1.42;;;11.70;99.90;;;;;;4104132;29;20654;-94
2023/11/14 03:56:13;;;;;;;6.13;1.45;;;11.70;99.90;;;;;;4102518;28;20643;-96
2023/11/14 03:58:58;;;;;;;10.00;1.17;;;11.60;99.90;;;;;;4104189;28;20198;-95
2023/11/14 04:01:07;;;;;;;11.13;1.33;;;11.60;99.90;;;;;;4071764;29;20199;-95
2023/11/14 04:03:17;;;;;;;5.72;1.85;;;11.50;99.90;;;;;;4086982;29;20183;-95
2023/11/14 04:05:25;;;;;;;7.80;1.23;;;11.50;99.90;;;;;;4103350;28;20187;-95
2023/11/14 04:07:29;;;;;;;13.88;0.93;;;11.50;99.90;;;;;;4101775;28;20186;-95
2023/11/14 04:09:43;;;;;;;8.95;1.27;;;11.50;99.90;;;;;;4086044;29;20231;-95
2023/11/14 04:14:58;;;;;;;7.32;1.77;;;11.60;99.90;;;;;;4109035;28;20178;-95
2023/11/14 04:17:00;;;;;;;6.90;1.77;;;11.40;99.90;;;;;;4101585;29;20635;-96
2023/11/14 04:19:13;;;;;;;7.22;1.38;;;11.40;99.90;;;;;;4086022;29;20736;-94
2023/11/14 04:21:20;;;;;;;5.43;0.98;;;11.40;99.90;;;;;;4085581;29;20247;-96
2023/11/14 04:23:21;;;;;;;15.15;1.98;;;11.40;99.90;;;;;;4101520;29;20182;-96
2023/11/14 04:25:24;;;;;;;4.65;0.73;;;11.40;99.90;;;;;;4085578;29;20259;-95
2023/11/14 04:27:30;;;;;;;6.97;1.55;;;11.40;99.90;;;;;;4100333;29;20183;-96
2023/11/14 04:29:31;;;;;;;7.90;1.20;;;11.50;99.90;;;;;;4085393;29;20251;-96
2023/11/14 04:31:34;;;;;;;16.85;1.25;;;11.50;99.90;;;;;;4085546;29;20668;-96
2023/11/14 04:33:38;;;;;;;8.25;1.08;;;11.60;99.90;;;;;;4086158;29;20203;-96
2023/11/14 04:35:45;;;;;;;11.88;2.10;;;11.60;99.90;;;;;;4102747;29;20265;-93
2023/11/14 04:37:58;;;;;;;11.18;1.65;;;11.70;99.90;;;;;;4101653;28;20293;-96
2023/11/14 04:40:05;;;;;;;6.50;0.82;;;11.70;99.90;;;;;;4085348;29;20664;-95
2023/11/14 04:42:11;;;;;;;10.82;2.08;;;11.70;99.90;;;;;;4086940;29;20188;-96
2023/11/14 04:44:15;;;;;;;25.17;2.63;;;11.60;99.90;;;;;;4086380;29;20222;-95
2023/11/14 04:46:19;;;;;;;13.70;2.45;;;11.50;99.90;;;;;;4101177;29;20245;-95
2023/11/14 04:48:19;;;;;;;6.45;1.55;;;11.50;99.90;;;;;;4087326;29;20223;-93
2023/11/14 04:50:22;;;;;;;8.68;1.40;;;11.50;99.90;;;;;;4102596;29;20302;-96
2023/11/14 04:52:22;;;;;;;10.82;1.10;;;11.50;99.90;;;;;;4085718;29;20180;-96
2023/11/14 04:54:23;;;;;;;9.18;1.52;;;11.50;99.90;;;;;;4102679;28;20238;-94
2023/11/14 04:56:24;;;;;;;5.65;1.77;;;11.40;99.90;;;;;;4088820;29;20184;-95
2023/11/14 04:58:27;;;;;;;4.25;1.05;;;11.50;99.90;;;;;;4088001;29;20199;-94
2023/11/14 05:00:30;;;;;;;4.97;1.58;;;11.60;99.90;;;;;;4103454;29;20179;-96
2023/11/14 05:02:31;;;;;;;6.75;1.27;;;11.60;99.90;;;;;;4103580;29;20238;-96
2023/11/14 05:06:58;;;;;;;5.93;1.30;;;11.60;99.90;;;;;;4103346;29;20171;-95
2023/11/14 05:08:59;;;;;;;6.88;1.15;;;11.70;99.90;;;;;;4087413;29;20261;-95
2023/11/14 05:11:07;;;;;;;10.05;1.63;;;11.60;99.90;;;;;;4119906;28;20186;-95
2023/11/14 05:13:16;;;;;;;14.43;1.83;;;11.70;99.90;;;;;;4088228;29;20179;-94
2023/11/14 05:15:21;;;;;;;7.90;1.08;;;11.80;99.90;;;;;;4104147;28;20262;-95
2023/11/14 05:17:24;;;;;;;10.77;1.10;;;11.70;99.90;;;;;;4103209;29;20294;-93
2023/11/14 05:19:37;;;;;;;10.15;2.20;;;11.70;99.90;;;;;;4087666;29;20616;-94
2023/11/14 05:21:44;;;;;;;17.73;2.90;;;11.80;99.90;;;;;;4103135;29;20215;-94
2023/11/14 05:23:52;;;;;;;11.27;1.70;;;11.80;99.90;;;;;;4087152;29;20629;-94
2023/11/14 05:26:04;;;;;;;3.85;0.60;;;11.90;99.90;;;;;;4103000;29;20191;-95
2023/11/14 05:28:07;;;;;;;5.47;0.70;;;11.90;99.90;;;;;;4087636;29;20214;-95
2023/11/14 05:30:18;;;;;;;8.57;0.85;;;11.90;99.90;;;;;;4103197;29;20218;-96
2023/11/14 05:32:30;;;;;;;7.88;1.65;;;11.90;99.90;;;;;;4087194;29;20183;-95
2023/11/14 05:34:34;;;;;;;10.27;2.03;;;12.00;99.90;;;;;;4087620;29;20187;-96
2023/11/14 05:36:43;;;;;;;7.30;1.27;;;12.00;99.90;;;;;;4087153;29;20596;-94
2023/11/14 05:38:50;;;;;;;8.23;1.30;;;12.10;99.90;;;;;;4103306;29;20252;-93
2023/11/14 05:41:19;;;;;;;12.40;2.08;;;12.10;99.90;;;;;;4102935;29;20568;-95
2023/11/14 05:43:20;;;;;;;9.82;1.88;;;12.10;99.90;;;;;;4079500;29;20188;-96
2023/11/14 05:45:27;;;;;;;4.82;1.30;;;12.10;99.90;;;;;;4087432;29;20539;-95
2023/11/14 05:47:38;;;;;;;6.07;0.90;;;12.10;99.90;;;;;;4102579;28;20575;-93
2023/11/14 05:49:44;;;;;;;7.78;1.95;;;12.00;99.90;;;;;;4087224;29;20309;-96
2023/11/14 05:51:46;;;;;;;2.88;1.38;;;11.90;99.90;;;;;;4103242;28;20270;-95
2023/11/14 05:53:54;;;;;;;8.68;1.08;;;11.90;99.90;;;;;;4103551;29;20191;-93
2023/11/14 05:56:07;;;;;;;2.10;0.82;;;11.90;99.90;;;;;;4087592;29;20187;-95
2023/11/14 05:58:08;;;;;;;6.63;1.23;;;11.80;99.90;;;;;;4105388;29;20222;-93
2023/11/14 06:00:13;;;;;;;5.63;1.13;;;11.80;99.90;;;;;;4104008;29;20265;-94
2023/11/14 06:02:22;;;;;;;4.45;0.73;;;11.80;99.90;;;;;;4092041;29;20190;-95
2023/11/14 06:04:33;;;;;;;5.38;1.55;;;11.80;99.90;;;;;;4087043;29;20191;-94
2023/11/14 06:06:34;;;;;;;7.88;1.25;;;11.80;99.90;;;;;;4087326;29;20183;-95
2023/11/14 06:08:35;;;;;;;15.68;1.30;;;11.80;99.90;;;;;;4086528;29;20207;-92
2023/11/14 06:10:36;;;;;;;8.93;1.33;;;11.90;99.90;;;;;;4086459;29;20179;-94
2023/11/14 06:12:39;;;;;;;3.35;1.58;;;11.80;99.90;;;;;;4086400;29;20236;-94
2023/11/14 06:14:40;;;;;;;6.55;1.50;;;11.80;99.90;;;;;;4086207;29;20666;-92
2023/11/14 06:16:41;;;;;;;6.18;1.90;;;11.70;99.90;;;;;;4101740;28;20210;-93
2023/11/14 06:18:43;;;;;;;12.27;2.33;;;11.60;99.90;;;;;;4086276;29;20725;-94
2023/11/14 06:20:44;;;;;;;3.53;1.58;;;11.70;99.90;;;;;;4102169;29;20245;-93
2023/11/14 06:22:46;;;;;;;9.50;1.20;;;11.60;99.90;;;;;;4086541;29;20183;-94
2023/11/14 06:24:55;;;;;;;16.13;2.00;;;11.70;99.90;;;;;;4101938;29;20212;-96
2023/11/14 06:26:56;;;;;;;11.02;1.80;;;11.70;99.90;;;;;;4102154;29;20191;-94
2023/11/14 06:28:57;;;;;;;2.72;0.70;;;11.70;99.90;;;;;;4086127;29;20227;-95
2023/11/14 06:30:57;;;;;;;7.13;1.17;;;11.70;99.90;;;;;;4102574;29;20183;-94
2023/11/14 06:32:58;;;;;;;13.75;2.00;;;11.70;99.90;;;;;;4086580;29;20188;-93
2023/11/14 06:34:59;;;;;;;5.25;1.55;;;11.70;99.90;;;;;;4102664;29;20209;-95
2023/11/14 06:37:00;;;;;;;2.75;0.88;;;11.70;99.90;;;;;;4087906;29;20195;-92
2023/11/14 06:39:01;;;;;;;11.43;0.95;;;11.60;99.90;;;;;;4086195;29;20225;-94
2023/11/14 06:41:02;;;;;;;7.82;1.90;;;11.60;99.90;;;;;;4101909;28;20663;-94
2023/11/14 06:43:04;;;;;;;28.95;1.35;;;11.60;99.90;;;;;;4086119;29;20592;-93
2023/11/14 06:45:05;;;;;;;5.22;0.95;;;11.60;99.90;;;;;;4102369;29;20275;-94
2023/11/14 06:47:06;;;;;;;6.85;1.58;;;11.50;99.90;;;;;;4086989;29;20184;-95
2023/11/14 06:49:07;;;;;;;3.38;0.75;;;11.60;99.90;;;;;;4118015;28;20346;-92
2023/11/14 06:51:08;;;;;;;9.43;2.00;;;11.60;99.90;;;;;;4086411;29;20627;-93
2023/11/14 06:53:08;;;;;;;4.13;1.05;;;11.70;99.90;;;;;;4117800;28;20269;-94
2023/11/14 06:55:09;;;;;;;13.73;0.93;;;11.80;99.90;;;;;;4086420;29;20186;-93
2023/11/14 06:57:10;;;;;;;25.40;3.13;;;11.80;99.90;;;;;;4117623;28;20253;-95
2023/11/14 06:59:11;;;;;;;13.30;2.08;;;11.80;99.90;;;;;;4086683;29;20234;-95
2023/11/14 07:01:13;;;;;;;13.88;1.58;;;11.80;99.90;;;;;;4103614;29;20620;-96
2023/11/14 07:03:13;;;;;;;11.13;1.55;;;11.70;99.90;;;;;;4087552;29;20183;-92
2023/11/14 07:05:14;;;;;;;8.55;1.75;;;11.70;99.90;;;;;;4122072;28;20281;-93
2023/11/14 07:07:16;;;;;;;7.35;1.35;;;11.80;99.90;;;;;;4090765;29;20175;-91
2023/11/14 07:09:18;;;;;;;12.45;2.30;;;11.80;99.90;;;;;;4090593;29;20230;-93
2023/11/14 07:11:21;;;;;;;8.82;1.95;;;11.80;99.90;;;;;;4089344;29;20186;-93
2023/11/14 07:13:22;;;;;;;6.70;1.83;;;11.90;99.90;;;;;;4104938;29;20648;-95
2023/11/14 07:15:23;;;;;;;15.55;1.48;;;11.90;99.90;;;;;;4106491;29;20195;-92
2023/11/14 07:17:24;;;;;;;7.55;1.27;;;11.90;99.90;;;;;;4102785;28;20183;-93
2023/11/14 07:19:25;;;;;;;7.03;1.70;;;12.00;99.90;;;;;;4121641;28;20240;-91
2023/11/14 07:21:25;;;;;;;20.77;2.40;;;12.10;99.90;;;;;;4088841;29;20255;-92
2023/11/14 07:23:26;;;;;;;14.90;7.45;;;12.00;99.90;;;;;;4086874;29;20258;-92
2023/11/14 07:25:28;;;;;;;31.50;13.70;;;12.00;99.90;;;;;;4090892;29;20264;-94
2023/11/14 07:27:29;;;;;;;19.05;3.42;;;12.00;99.90;;;;;;4103691;29;20258;-91
2023/11/14 07:29:35;;;;;;;14.40;2.63;;;12.00;99.90;;;;;;4125203;28;20314;-94
2023/11/14 07:31:35;;;;;;;20.23;2.58;;;12.00;99.90;;;;;;4105531;29;20179;-94
2023/11/14 07:33:36;;;;;;;13.32;2.67;;;12.20;99.90;;;;;;4090409;29;20267;-93
2023/11/14 07:35:37;;;;;;;16.30;1.77;;;12.10;99.90;;;;;;4121401;28;20619;-92
2023/11/14 07:37:38;;;;;;;9.35;1.45;;;12.10;99.90;;;;;;4092778;29;20211;-93
2023/11/14 07:39:38;;;;;;;9.13;1.10;;;12.10;99.90;;;;;;4103043;29;20219;-92
2023/11/14 07:41:39;;;;;;;7.65;0.85;;;12.10;99.90;;;;;;4092199;28;20191;-92
2023/11/14 07:43:44;;;;;;;5.32;1.35;;;12.20;99.90;;;;;;4091054;29;20251;-93
2023/11/14 07:45:45;;;;;;;5.25;2.00;;;12.20;99.90;;;;;;4089686;29;20195;-91
2023/11/14 07:47:48;;;;;;;11.00;1.45;;;12.30;99.90;;;;;;4105915;29;20322;-92
2023/11/14 07:49:50;;;;;;;4.63;1.45;;;12.20;99.90;;;;;;4105831;29;20214;-92
2023/11/14 07:51:50;;;;;;;9.55;1.30;;;12.20;99.90;;;;;;4089074;29;20266;-92
2023/11/14 07:53:53;;;;;;;6.38;1.58;;;12.10;99.90;;;;;;4122019;28;20193;-91
2023/11/14 07:55:55;;;;;;;4.85;0.90;;;12.10;99.90;;;;;;4091588;28;20211;-91
2023/11/14 07:57:55;;;;;;;8.50;1.23;;;12.20;99.90;;;;;;4105542;29;20206;-91
2023/11/14 07:59:57;;;;;;;13.98;1.65;;;12.10;99.90;;;;;;4088106;28;20232;-92
2023/11/14 08:01:58;;;;;;;7.88;1.42;;;12.10;99.90;;;;;;4090473;29;20191;-96
2023/11/14 08:03:59;;;;;;;8.18;1.88;;;12.20;99.90;;;;;;4088114;29;20179;-92
2023/11/14 08:06:00;;;;;;;5.10;1.08;;;12.20;99.90;;;;;;4088867;29;20198;-92
2023/11/14 08:08:00;;;;;;;12.43;1.55;;;12.20;99.90;;;;;;4108496;28;20203;-90
2023/11/14 08:10:01;;;;;;;5.85;2.20;;;12.20;99.90;;;;;;4092974;29;20226;-91
2023/11/14 08:12:03;;;;;;;4.45;1.45;;;12.20;99.90;;;;;;4110047;28;20242;-94
2023/11/14 08:14:04;;;;;;;5.95;1.17;;;12.30;99.90;;;;;;4106109;29;20220;-91
2023/11/14 08:16:05;;;;;;;10.82;1.75;;;12.30;99.90;;;;;;4108121;29;20175;-91
2023/11/14 08:18:10;;;;;;;6.60;1.00;;;12.40;99.90;;;;;;4102879;29;20580;-92
2023/11/14 08:20:12;;;;;;;8.32;1.05;;;12.30;99.90;;;;;;4106269;29;20199;-91
2023/11/14 08:22:12;;;;;;;9.93;2.38;;;12.40;99.90;;;;;;4092194;28;20223;-96
2023/11/14 08:24:13;;;;;;;18.00;2.22;;;12.30;99.90;;;;;;4105890;29;20179;-92
2023/11/14 08:26:14;;;;;;;2.10;0.77;;;12.20;99.90;;;;;;4104935;29;20187;-92
2023/11/14 08:28:30;;;;;;;11.05;1.48;;;12.00;99.90;;;;;;4104911;28;20187;-92
2023/11/14 08:30:31;;;;;;;10.85;1.48;;;11.90;99.90;;;;;;4089016;29;20294;-91
2023/11/14 08:32:32;;;;;;;5.22;1.45;;;11.70;99.90;;;;;;4089140;29;20175;-94
2023/11/14 08:34:33;;;;;;;10.57;1.58;;;11.60;99.90;;;;;;4090454;29;20199;-91
2023/11/14 08:36:34;;;;;;;2.88;1.20;;;11.70;99.90;;;;;;4092198;29;20191;-91
2023/11/14 08:38:37;;;;;;;6.63;0.82;;;11.80;99.90;;;;;;4124266;28;20206;-92
2023/11/14 08:40:37;;;;;;;2.80;1.38;;;11.80;99.90;;;;;;4090771;29;20180;-91
2023/11/14 08:42:38;;;;;;;18.02;2.15;;;11.70;99.90;;;;;;4105230;29;20183;-94
2023/11/14 08:44:40;;;;;;;9.65;2.05;;;11.80;99.90;;;;;;4090103;29;20521;-92
2023/11/14 08:46:40;;;;;;;10.93;1.92;;;11.80;99.90;;;;;;4092781;29;20180;-92
2023/11/14 08:48:41;;;;;;;11.07;2.45;;;11.80;99.90;;;;;;4122283;28;20540;-93
2023/11/14 08:50:42;;;;;;;5.65;0.88;;;11.70;99.90;;;;;;4089092;29;20191;-92
2023/11/14 08:52:42;;;;;;;16.67;2.55;;;11.70;99.90;;;;;;4107405;29;20187;-92
2023/11/14 08:54:43;;;;;;;9.30;1.27;;;11.80;99.90;;;;;;4086241;29;20560;-92
2023/11/14 08:56:44;;;;;;;15.80;2.20;;;11.90;99.90;;;;;;4103125;29;20198;-92
2023/11/14 08:58:45;;;;;;;6.03;1.38;;;12.00;99.90;;;;;;4090239;29;20299;-92
2023/11/14 09:00:47;;;;;;;7.65;1.98;;;12.00;99.90;;;;;;4105497;29;20229;-96
2023/11/14 09:02:47;;;;;;;7.88;2.15;;;11.90;99.90;;;;;;4120396;28;20190;-92
2023/11/14 09:04:48;;;;;;;12.90;4.60;;;11.90;99.90;;;;;;4088928;29;20207;-91
2023/11/14 09:06:49;;;;;;;7.45;1.45;;;11.90;99.90;;;;;;4107638;28;20178;-91
2023/11/14 09:08:50;;;;;;;8.05;2.95;;;11.90;99.90;;;;;;4094225;29;20263;-91
2023/11/14 09:10:50;;;;;;;11.15;1.55;;;11.90;99.90;;;;;;4090733;29;20278;-90
2023/11/14 09:12:51;;;;;;;1.77;0.90;;;11.80;99.90;;;;;;4120422;28;20229;-91
2023/11/14 09:14:52;;;;;;;7.28;1.27;;;11.80;99.90;;;;;;4091635;29;20187;-95
2023/11/14 09:16:54;;;;;;;4.88;2.63;;;11.70;99.90;;;;;;4119134;28;20329;-93
2023/11/14 09:18:56;;;;;;;4.93;0.95;;;11.70;99.90;;;;;;4085007;29;20339;-91
2023/11/14 09:20:56;;;;;;;6.95;2.70;;;11.70;99.90;;;;;;4101975;29;20621;-95
2023/11/14 09:22:57;;;;;;;4.82;1.05;;;11.70;99.90;;;;;;4087998;29;20190;-96
2023/11/14 09:24:58;;;;;;;5.75;0.60;;;11.80;99.90;;;;;;4085989;29;20243;-92
2023/11/14 09:26:58;;;;;;;5.78;1.90;;;11.90;99.90;;;;;;4101003;29;20214;-95
2023/11/14 09:28:59;;;;;;;2.15;0.60;;;12.00;99.90;;;;;;4083927;29;20219;-93
2023/11/14 09:31:03;;;;;;;9.93;3.00;;;12.00;99.90;;;;;;4084048;29;20187;-92
2023/11/14 09:33:03;;;;;;;3.08;1.40;;;12.10;99.90;;;;;;4084181;29;20203;-92
2023/11/14 09:35:04;;;;;;;3.33;0.95;;;12.10;99.90;;;;;;4100143;28;20619;-94
2023/11/14 09:37:05;;;;;;;6.22;0.70;;;12.30;99.90;;;;;;4083993;29;20194;-94
2023/11/14 09:39:07;;;;;;;6.20;1.38;;;12.20;99.90;;;;;;4099425;28;20746;-94
2023/11/14 09:41:08;;;;;;;6.63;1.45;;;12.30;99.90;;;;;;4086944;29;20270;-95
2023/11/14 09:43:09;;;;;;;12.55;1.20;;;12.50;99.90;;;;;;4086864;29;20194;-93
2023/11/14 09:45:12;;;;;;;4.00;1.50;;;12.60;99.90;;;;;;4102611;29;20667;-94
2023/11/14 09:47:13;;;;;;;5.25;0.90;;;12.50;99.90;;;;;;4086736;29;20751;-94
2023/11/14 09:49:14;;;;;;;5.50;1.35;;;12.50;99.90;;;;;;4086627;29;20290;-93
2023/11/14 09:51:16;;;;;;;11.65;3.35;;;12.50;99.90;;;;;;4102446;28;20743;-95
2023/11/14 09:53:19;;;;;;;8.05;2.08;;;12.40;99.90;;;;;;4087041;29;20187;-94
2023/11/14 09:55:23;;;;;;;5.95;1.17;;;12.40;99.90;;;;;;4102534;29;20750;-94
2023/11/14 09:57:25;;;;;;;8.93;0.82;;;12.30;99.90;;;;;;4086522;29;20183;-94
2023/11/14 09:59:27;;;;;;;4.45;1.10;;;12.30;99.90;;;;;;4086638;29;20263;-93
2023/11/14 10:01:27;;;;;;;6.82;1.10;;;12.20;99.90;;;;;;4103049;29;20262;-94
2023/11/14 10:03:29;;;;;;;3.60;0.90;;;12.10;99.90;;;;;;4086601;29;20731;-95
2023/11/14 10:05:30;;;;;;;3.40;1.35;;;12.00;99.90;;;;;;4102410;29;20651;-94
2023/11/14 10:07:34;;;;;;;9.13;0.90;;;11.90;99.90;;;;;;4087253;29;20736;-96
2023/11/14 10:09:38;;;;;;;2.75;1.02;;;12.40;99.90;;;;;;4086633;29;20206;-93
2023/11/14 10:11:56;;;;;;;5.07;0.88;;;12.30;99.90;;;;;;4086606;29;20183;-95
2023/11/14 10:14:04;;;;;;;2.60;0.75;;;12.00;99.90;;;;;;4102416;29;20187;-94
2023/11/14 10:16:22;;;;;;;5.25;0.50;;;12.30;99.90;;;;;;4103092;29;20227;-93
2023/11/14 10:18:29;;;;;;;4.30;1.20;;;12.10;99.90;;;;;;4102702;29;20293;-93
2023/11/14 10:20:38;;;;;;;2.58;1.13;;;12.00;99.90;;;;;;4102655;29;20270;-92
2023/11/14 10:22:51;;;;;;;1.73;0.68;;;12.00;99.90;;;;;;4087164;29;20190;-95
2023/11/14 10:24:52;;;;;;;3.50;1.60;;;12.00;99.90;;;;;;4103237;29;20188;-94
2023/11/14 10:26:54;;;;;;;3.08;0.88;;;12.10;99.90;;;;;;4103279;28;20273;-94
2023/11/14 10:28:58;;;;;;;9.13;1.27;;;12.10;99.90;;;;;;4102081;29;20695;-93
2023/11/14 10:30:59;;;;;;;16.48;3.20;;;12.20;99.90;;;;;;4088700;29;20180;-94
2023/11/14 10:33:00;;;;;;;5.50;1.45;;;12.30;99.90;;;;;;4103684;28;20163;-93
2023/11/14 10:35:18;;;;;;;5.15;1.08;;;12.20;99.90;;;;;;4107625;28;20213;-93
2023/11/14 10:37:33;;;;;;;8.65;1.92;;;12.10;99.90;;;;;;4088609;29;20199;-93
2023/11/14 10:39:34;;;;;;;8.13;1.67;;;12.10;99.90;;;;;;4087349;29;20695;-93
2023/11/14 10:41:34;;;;;;;5.38;0.93;;;12.10;99.90;;;;;;4086353;29;20187;-93
2023/11/14 10:43:35;;;;;;;9.75;1.45;;;12.10;99.90;;;;;;4087179;29;20186;-94
2023/11/14 10:45:39;;;;;;;5.88;0.98;;;12.20;99.90;;;;;;4071830;29;20554;-93
2023/11/14 10:47:41;;;;;;;4.00;0.80;;;12.30;99.90;;;;;;4086703;29;20247;-96
2023/11/14 10:49:47;;;;;;;8.52;1.70;;;12.30;99.90;;;;;;4091379;29;20223;-91
2023/11/14 10:51:52;;;;;;;7.13;1.40;;;12.30;99.90;;;;;;4085839;29;20259;-95
2023/11/14 10:53:55;;;;;;;3.88;1.48;;;12.20;99.90;;;;;;4070991;29;20258;-93
2023/11/14 10:56:04;;;;;;;7.65;1.80;;;12.10;99.90;;;;;;4087314;29;20176;-94
2023/11/14 10:58:07;;;;;;;12.98;2.40;;;12.10;99.90;;;;;;4071093;29;20232;-94
2023/11/14 11:00:10;;;;;;;2.80;0.68;;;12.30;99.90;;;;;;4070114;29;20626;-94
2023/11/14 11:02:12;;;;;;;2.33;0.73;;;12.30;99.90;;;;;;4072060;29;20169;-93
2023/11/14 11:04:23;;;;;;;4.90;1.52;;;12.20;99.90;;;;;;4071640;29;20176;-93
2023/11/14 11:06:26;;;;;;;8.15;1.00;;;12.30;99.90;;;;;;4086599;29;20251;-94
2023/11/14 11:08:27;;;;;;;11.60;1.45;;;12.30;99.90;;;;;;4070265;29;20212;-94
2023/11/14 11:10:32;;;;;;;8.23;2.03;;;12.30;99.90;;;;;;4089878;29;20227;-92
2023/11/14 11:12:36;;;;;;;13.95;1.42;;;12.30;99.90;;;;;;4086788;29;20175;-94